createdAt,value
2016-10-18T00:00:57.203Z,0
2016-10-18T00:05:57.457Z,0
2016-10-18T00:10:56.850Z,0
2016-10-18T00:15:57.082Z,0
2016-10-18T00:20:57.043Z,0
2016-10-18T00:25:56.951Z,0
2016-10-18T00:30:56.900Z,0
2016-10-18T00:35:56.553Z,0
2016-10-18T00:40:57.103Z,0
2016-10-18T00:45:56.755Z,0
2016-10-18T00:50:56.702Z,0
2016-10-18T00:55:56.658Z,0
2016-10-18T01:00:56.901Z,0
2016-10-18T01:05:56.541Z,0
2016-10-18T01:10:56.810Z,0
2016-10-18T01:15:56.442Z,0
2016-10-18T01:20:56.388Z,0
2016-10-18T01:25:56.354Z,0
2016-10-18T01:30:56.609Z,0
2016-10-18T01:35:56.541Z,0
2016-10-18T01:40:56.227Z,0
2016-10-18T01:45:56.136Z,0
2016-10-18T01:50:55.784Z,0
2016-10-18T01:55:56.039Z,0
2016-10-18T02:00:56.287Z,0
2016-10-18T02:05:56.234Z,0
2016-10-18T02:10:56.219Z,0
2016-10-18T02:15:55.841Z,0
2016-10-18T02:20:56.079Z,0
2016-10-18T02:25:56.020Z,0
2016-10-18T02:30:55.672Z,0
2016-10-18T02:35:55.321Z,0
2016-10-18T02:40:55.569Z,0
2016-10-18T02:45:55.819Z,0
2016-10-18T02:50:55.463Z,0
2016-10-18T02:55:55.723Z,0
2016-10-18T03:00:55.661Z,0
2016-10-18T03:05:55.621Z,0
2016-10-18T03:10:55.283Z,0
2016-10-18T03:15:55.512Z,0
2016-10-18T03:20:55.456Z,0
2016-10-18T03:25:55.413Z,0
2016-10-18T03:30:55.375Z,0
2016-10-18T03:35:54.999Z,0
2016-10-18T03:40:54.944Z,0
2016-10-18T03:45:55.234Z,0
2016-10-18T03:50:55.156Z,0
2016-10-18T03:55:55.093Z,0
2016-10-18T04:00:55.031Z,0
2016-10-18T04:05:54.978Z,0
2016-10-18T04:10:54.932Z,0
2016-10-18T04:15:54.884Z,0
2016-10-18T04:20:54.520Z,0
2016-10-18T04:25:54.778Z,0
2016-10-18T04:30:54.412Z,0
2016-10-18T04:35:54.666Z,0
2016-10-18T04:40:54.043Z,0
2016-10-18T04:45:54.553Z,0
2016-10-18T04:50:54.501Z,0
2016-10-18T04:55:54.146Z,0
2016-10-18T05:00:54.093Z,0
2016-10-18T05:05:54.346Z,0
2016-10-18T05:10:53.983Z,0
2016-10-18T05:15:54.252Z,0
2016-10-18T05:20:53.264Z,0
2016-10-18T05:25:53.819Z,0
2016-10-18T05:30:54.080Z,0
2016-10-18T05:35:54.017Z,0
2016-10-18T05:40:53.967Z,0
2016-10-18T05:45:53.607Z,0
2016-10-18T05:50:53.559Z,0
2016-10-18T05:55:53.501Z,0
2016-10-18T06:00:53.454Z,4
2016-10-18T06:05:53.403Z,4
2016-10-18T06:10:53.345Z,4
2016-10-18T06:15:52.995Z,4
2016-10-18T06:20:53.237Z,8
2016-10-18T06:25:53.193Z,8
2016-10-18T06:30:53.143Z,4
2016-10-18T06:35:53.093Z,4
2016-10-18T06:40:53.045Z,8
2016-10-18T06:45:52.987Z,4
2016-10-18T06:50:53.235Z,8
2016-10-18T06:55:52.908Z,8
2016-10-18T07:00:52.823Z,8
2016-10-18T07:05:52.501Z,12
2016-10-18T07:10:52.731Z,16
2016-10-18T07:15:52.657Z,16
2016-10-18T07:20:52.314Z,16
2016-10-18T07:25:52.876Z,20
2016-10-18T07:30:52.505Z,28
2016-10-18T07:35:52.452Z,28
2016-10-18T07:40:52.714Z,24
2016-10-18T07:45:52.370Z,28
2016-10-18T07:50:52.606Z,28
2016-10-18T07:55:52.236Z,44
2016-10-18T08:00:52.544Z,52
2016-10-18T08:05:52.135Z,40
2016-10-18T08:10:51.778Z,28
2016-10-18T08:15:52.334Z,28
2016-10-18T08:20:51.985Z,24
2016-10-18T08:25:51.628Z,36
2016-10-18T08:30:51.572Z,24
2016-10-18T08:35:51.821Z,24
2016-10-18T08:40:51.766Z,24
2016-10-18T08:45:52.029Z,32
2016-10-18T08:50:51.369Z,28
2016-10-18T08:55:51.615Z,28
2016-10-18T09:00:51.572Z,44
2016-10-18T09:05:51.814Z,40
2016-10-18T09:10:51.490Z,52
2016-10-18T09:15:51.415Z,68
2016-10-18T09:20:51.670Z,76
2016-10-18T09:25:51.638Z,56
2016-10-18T09:30:51.561Z,48
2016-10-18T09:35:51.514Z,64
2016-10-18T09:40:51.160Z,52
2016-10-18T09:45:51.110Z,48
2016-10-18T09:50:51.362Z,48
2016-10-18T09:55:51.309Z,44
2016-10-18T10:00:51.256Z,40
2016-10-18T10:05:50.903Z,44
2016-10-18T10:10:51.155Z,44
2016-10-18T10:15:50.842Z,52
2016-10-18T10:20:51.054Z,40
2016-10-18T10:25:50.397Z,40
2016-10-18T10:30:50.379Z,40
2016-10-18T10:35:50.897Z,36
2016-10-18T10:40:50.578Z,28
2016-10-18T10:45:50.189Z,20
2016-10-18T10:50:50.429Z,16
2016-10-18T10:55:50.700Z,20
2016-10-18T11:00:50.332Z,16
2016-10-18T11:05:50.317Z,20
2016-10-18T11:10:50.239Z,20
2016-10-18T11:15:50.479Z,20
2016-10-18T11:20:50.463Z,16
2016-10-18T11:25:50.396Z,12
2016-10-18T11:30:50.013Z,20
2016-10-18T11:35:49.967Z,16
2016-10-18T11:40:50.227Z,16
2016-10-18T11:45:49.861Z,16
2016-10-18T11:50:49.808Z,20
2016-10-18T11:55:50.218Z,16
2016-10-18T12:00:49.449Z,24
2016-10-18T12:05:49.666Z,20
2016-10-18T12:10:49.615Z,20
2016-10-18T12:15:49.876Z,16
2016-10-18T12:20:49.812Z,16
2016-10-18T12:25:49.454Z,16
2016-10-18T12:30:49.103Z,20
2016-10-18T12:35:49.375Z,28
2016-10-18T12:40:49.316Z,20
2016-10-18T12:45:49.250Z,16
2016-10-18T12:50:48.904Z,16
2016-10-18T12:55:49.149Z,16
2016-10-18T13:00:49.104Z,12
2016-10-18T13:05:49.355Z,8
2016-10-18T13:10:49.302Z,8
2016-10-18T13:15:49.253Z,8
2016-10-18T13:20:48.901Z,8
2016-10-18T13:25:48.889Z,12
2016-10-18T13:30:48.806Z,12
2016-10-18T13:35:49.074Z,16
2016-10-18T13:40:48.399Z,16
2016-10-18T13:45:48.950Z,12
2016-10-18T13:50:48.903Z,12
2016-10-18T13:55:48.846Z,16
2016-10-18T14:00:48.498Z,16
2016-10-18T14:05:48.473Z,12
2016-10-18T14:10:48.397Z,8
2016-10-18T14:15:48.647Z,12
2016-10-18T14:20:48.594Z,12
2016-10-18T14:25:48.569Z,12
2016-10-18T14:30:48.187Z,12
2016-10-18T14:35:48.163Z,8
2016-10-18T14:40:48.098Z,8
2016-10-18T14:45:48.377Z,8
2016-10-18T14:50:48.004Z,8
2016-10-18T14:55:48.249Z,4
2016-10-18T15:00:48.197Z,8
2016-10-18T15:05:48.162Z,8
2016-10-18T15:10:47.798Z,4
2016-10-18T15:15:48.056Z,4
2016-10-18T15:20:47.690Z,4
2016-10-18T15:25:47.626Z,4
2016-10-18T15:30:47.589Z,4
2016-10-18T15:35:47.857Z,4
2016-10-18T15:40:47.478Z,4
2016-10-18T15:45:47.132Z,8
2016-10-18T15:50:47.414Z,4
2016-10-18T15:55:47.340Z,8
2016-10-18T16:00:47.593Z,8
2016-10-18T16:05:46.937Z,8
2016-10-18T16:10:47.223Z,8
2016-10-18T16:15:47.127Z,8
2016-10-18T16:20:47.391Z,8
2016-10-18T16:25:47.042Z,8
2016-10-18T16:30:46.995Z,4
2016-10-18T16:35:46.936Z,4
2016-10-18T16:40:46.892Z,4
2016-10-18T16:45:46.834Z,8
2016-10-18T16:50:46.785Z,4
2016-10-18T16:55:47.048Z,4
2016-10-18T17:00:46.688Z,4
2016-10-18T17:05:46.336Z,4
2016-10-18T17:10:46.598Z,4
2016-10-18T17:15:46.538Z,4
2016-10-18T17:20:46.541Z,4
2016-10-18T17:25:46.761Z,4
2016-10-18T17:30:46.090Z,4
2016-10-18T17:35:46.351Z,4
2016-10-18T17:40:46.299Z,4
2016-10-18T17:45:46.593Z,4
2016-10-18T17:50:46.215Z,4
2016-10-18T17:55:46.476Z,4
2016-10-18T18:00:45.817Z,4
2016-10-18T18:05:45.771Z,4
2016-10-18T18:10:46.327Z,4
2016-10-18T18:15:46.013Z,4
2016-10-18T18:20:46.259Z,4
2016-10-18T18:25:45.939Z,4
2016-10-18T18:30:45.840Z,4
2016-10-18T18:35:46.126Z,4
2016-10-18T18:40:45.433Z,4
2016-10-18T18:45:46.012Z,4
2016-10-18T18:50:45.654Z,0
2016-10-18T18:55:45.604Z,4
2016-10-18T19:00:45.549Z,4
2016-10-18T19:05:45.503Z,4
2016-10-18T19:10:45.471Z,4
2016-10-18T19:15:45.719Z,4
2016-10-18T19:20:45.385Z,4
2016-10-18T19:25:45.632Z,4
2016-10-18T19:30:45.565Z,4
2016-10-18T19:35:44.917Z,4
2016-10-18T19:40:45.484Z,4
2016-10-18T19:45:45.451Z,4
2016-10-18T19:50:44.775Z,4
2016-10-18T19:55:45.378Z,4
2016-10-18T20:00:44.678Z,4
2016-10-18T20:05:45.251Z,4
2016-10-18T20:10:45.227Z,4
2016-10-18T20:15:44.554Z,4
2016-10-18T20:20:44.812Z,4
2016-10-18T20:25:44.742Z,4
2016-10-18T20:30:45.022Z,4
2016-10-18T20:35:44.661Z,12
2016-10-18T20:40:44.617Z,12
2016-10-18T20:45:44.582Z,12
2016-10-18T20:50:44.829Z,12
2016-10-18T20:55:44.171Z,12
2016-10-18T21:00:44.436Z,16
2016-10-18T21:05:44.394Z,12
2016-10-18T21:10:44.642Z,16
2016-10-18T21:15:44.608Z,16
2016-10-18T21:20:43.952Z,12
2016-10-18T21:25:44.511Z,12
2016-10-18T21:30:44.463Z,12
2016-10-18T21:35:44.119Z,16
2016-10-18T21:40:44.379Z,4
2016-10-18T21:45:44.017Z,4
2016-10-18T21:50:43.970Z,4
2016-10-18T21:55:43.933Z,4
2016-10-18T22:00:43.879Z,0
2016-10-18T22:05:43.840Z,0
2016-10-18T22:10:43.482Z,0
2016-10-18T22:15:44.038Z,0
2016-10-18T22:20:43.988Z,0
2016-10-18T22:25:43.943Z,0
2016-10-18T22:30:43.281Z,0
2016-10-18T22:35:43.224Z,0
2016-10-18T22:40:43.785Z,0
2016-10-18T22:45:43.433Z,0
2016-10-18T22:50:43.084Z,0
2016-10-18T22:55:43.647Z,0
2016-10-18T23:00:42.990Z,0
2016-10-18T23:05:43.539Z,0
2016-10-18T23:10:43.498Z,0
2016-10-18T23:15:42.875Z,0
2016-10-18T23:20:43.093Z,0
2016-10-18T23:25:43.037Z,0
2016-10-18T23:30:43.029Z,0
2016-10-18T23:35:43.239Z,0
2016-10-18T23:40:43.181Z,0
2016-10-18T23:45:43.143Z,0
2016-10-18T23:50:43.082Z,0
2016-10-18T23:55:42.730Z,0
